sensor_id;sensor_type;location;lat;lon;timestamp;P1;durP1;ratioP1;P2;durP2;ratioP2
22094;SDS011;24083;55.670;37.568;2023-02-01T00:20:51;18.23;;;9.88;;
22094;SDS011;24083;55.670;37.568;2023-02-01T00:23:35;18.85;;;11.13;;
22094;SDS011;24083;55.670;37.568;2023-02-01T00:26:03;19.42;;;11.55;;
22094;SDS011;24083;55.670;37.568;2023-02-01T00:34:06;18.77;;;10.15;;
22094;SDS011;24083;55.670;37.568;2023-02-01T00:36:34;19.50;;;10.50;;
22094;SDS011;24083;55.670;37.568;2023-02-01T00:39:00;20.55;;;9.90;;
22094;SDS011;24083;55.670;37.568;2023-02-01T00:41:26;12.07;;;6.85;;
22094;SDS011;24083;55.670;37.568;2023-02-01T00:43:52;19.65;;;9.43;;
22094;SDS011;24083;55.670;37.568;2023-02-01T01:21:22;14.15;;;7.28;;
22094;SDS011;24083;55.670;37.568;2023-02-01T01:27:52;19.13;;;10.32;;
22094;SDS011;24083;55.670;37.568;2023-02-01T01:40:17;16.33;;;8.68;;
22094;SDS011;24083;55.670;37.568;2023-02-01T01:42:43;18.05;;;9.13;;
22094;SDS011;24083;55.670;37.568;2023-02-01T01:47:55;18.33;;;9.65;;
22094;SDS011;24083;55.670;37.568;2023-02-01T01:53:08;16.58;;;9.57;;
22094;SDS011;24083;55.670;37.568;2023-02-01T01:55:38;19.55;;;8.70;;
22094;SDS011;24083;55.670;37.568;2023-02-01T02:01:17;14.68;;;8.00;;
22094;SDS011;24083;55.670;37.568;2023-02-01T02:03:42;17.15;;;8.98;;
22094;SDS011;24083;55.670;37.568;2023-02-01T02:06:14;13.15;;;7.03;;
22094;SDS011;24083;55.670;37.568;2023-02-01T02:08:43;13.75;;;5.55;;
22094;SDS011;24083;55.670;37.568;2023-02-01T02:11:16;17.20;;;9.68;;
22094;SDS011;24083;55.670;37.568;2023-02-01T02:13:43;19.88;;;10.50;;
22094;SDS011;24083;55.670;37.568;2023-02-01T02:26:24;13.40;;;7.43;;
22094;SDS011;24083;55.670;37.568;2023-02-01T02:28:56;7.57;;;4.25;;
22094;SDS011;24083;55.670;37.568;2023-02-01T02:31:40;16.23;;;9.85;;
22094;SDS011;24083;55.670;37.568;2023-02-01T02:39:51;18.45;;;10.07;;
22094;SDS011;24083;55.670;37.568;2023-02-01T02:42:17;19.30;;;10.40;;
22094;SDS011;24083;55.670;37.568;2023-02-01T02:45:09;11.85;;;6.45;;
22094;SDS011;24083;55.670;37.568;2023-02-01T02:48:07;17.77;;;10.13;;
22094;SDS011;24083;55.670;37.568;2023-02-01T02:50:36;21.58;;;10.63;;
22094;SDS011;24083;55.670;37.568;2023-02-01T02:53:33;18.55;;;10.68;;
22094;SDS011;24083;55.670;37.568;2023-02-01T02:56:18;11.70;;;6.90;;
22094;SDS011;24083;55.670;37.568;2023-02-01T02:59:07;17.23;;;9.10;;
22094;SDS011;24083;55.670;37.568;2023-02-01T03:01:52;9.82;;;5.78;;
22094;SDS011;24083;55.670;37.568;2023-02-01T03:04:40;16.88;;;9.48;;
22094;SDS011;24083;55.670;37.568;2023-02-01T03:13:28;19.15;;;9.98;;
22094;SDS011;24083;55.670;37.568;2023-02-01T03:18:32;18.50;;;10.07;;
22094;SDS011;24083;55.670;37.568;2023-02-01T03:21:00;20.45;;;9.45;;
22094;SDS011;24083;55.670;37.568;2023-02-01T03:23:45;19.65;;;10.60;;
22094;SDS011;24083;55.670;37.568;2023-02-01T03:26:21;21.40;;;9.88;;
22094;SDS011;24083;55.670;37.568;2023-02-01T03:31:49;23.38;;;11.02;;
22094;SDS011;24083;55.670;37.568;2023-02-01T03:34:15;18.88;;;10.15;;
22094;SDS011;24083;55.670;37.568;2023-02-01T03:36:49;22.05;;;10.50;;
22094;SDS011;24083;55.670;37.568;2023-02-01T03:44:40;23.33;;;11.63;;
22094;SDS011;24083;55.670;37.568;2023-02-01T03:47:20;22.67;;;11.00;;
22094;SDS011;24083;55.670;37.568;2023-02-01T03:49:54;20.92;;;10.93;;
22094;SDS011;24083;55.670;37.568;2023-02-01T03:52:25;20.92;;;11.30;;
22094;SDS011;24083;55.670;37.568;2023-02-01T03:54:51;22.65;;;11.43;;
22094;SDS011;24083;55.670;37.568;2023-02-01T04:00:36;22.60;;;11.75;;
22094;SDS011;24083;55.670;37.568;2023-02-01T04:03:06;22.45;;;11.45;;
22094;SDS011;24083;55.670;37.568;2023-02-01T04:05:32;17.70;;;9.13;;
22094;SDS011;24083;55.670;37.568;2023-02-01T04:08:01;22.77;;;11.48;;
22094;SDS011;24083;55.670;37.568;2023-02-01T04:10:27;21.52;;;10.68;;
22094;SDS011;24083;55.670;37.568;2023-02-01T04:12:53;17.40;;;8.25;;
22094;SDS011;24083;55.670;37.568;2023-02-01T04:15:18;27.08;;;13.68;;
22094;SDS011;24083;55.670;37.568;2023-02-01T04:17:47;24.25;;;11.98;;
22094;SDS011;24083;55.670;37.568;2023-02-01T04:40:12;23.92;;;12.15;;
22094;SDS011;24083;55.670;37.568;2023-02-01T04:42:38;20.92;;;10.90;;
22094;SDS011;24083;55.670;37.568;2023-02-01T04:45:04;27.55;;;11.98;;
22094;SDS011;24083;55.670;37.568;2023-02-01T04:47:29;22.80;;;12.00;;
22094;SDS011;24083;55.670;37.568;2023-02-01T04:49:58;18.83;;;10.25;;
22094;SDS011;24083;55.670;37.568;2023-02-01T04:52:24;15.68;;;7.82;;
22094;SDS011;24083;55.670;37.568;2023-02-01T04:54:50;25.38;;;13.02;;
22094;SDS011;24083;55.670;37.568;2023-02-01T04:57:23;23.80;;;12.88;;
22094;SDS011;24083;55.670;37.568;2023-02-01T04:59:48;24.35;;;11.95;;
22094;SDS011;24083;55.670;37.568;2023-02-01T05:02:17;25.13;;;12.85;;
22094;SDS011;24083;55.670;37.568;2023-02-01T05:04:44;25.55;;;12.38;;
22094;SDS011;24083;55.670;37.568;2023-02-01T05:07:18;25.05;;;12.80;;
22094;SDS011;24083;55.670;37.568;2023-02-01T05:09:44;28.63;;;13.65;;
22094;SDS011;24083;55.670;37.568;2023-02-01T05:16:05;27.65;;;11.82;;
22094;SDS011;24083;55.670;37.568;2023-02-01T05:22:55;27.25;;;12.05;;
22094;SDS011;24083;55.670;37.568;2023-02-01T05:28:27;27.02;;;12.73;;
22094;SDS011;24083;55.670;37.568;2023-02-01T05:36:40;31.00;;;13.90;;
22094;SDS011;24083;55.670;37.568;2023-02-01T05:46:45;26.88;;;13.50;;
22094;SDS011;24083;55.670;37.568;2023-02-01T05:49:11;31.40;;;13.55;;
22094;SDS011;24083;55.670;37.568;2023-02-01T05:56:48;31.08;;;12.95;;
22094;SDS011;24083;55.670;37.568;2023-02-01T06:02:58;31.90;;;13.82;;
22094;SDS011;24083;55.670;37.568;2023-02-01T06:09:23;23.98;;;10.15;;
22094;SDS011;24083;55.670;37.568;2023-02-01T06:15:44;32.38;;;14.77;;
22094;SDS011;24083;55.670;37.568;2023-02-01T06:18:17;25.55;;;12.00;;
22094;SDS011;24083;55.670;37.568;2023-02-01T07:08:36;31.08;;;13.63;;
22094;SDS011;24083;55.670;37.568;2023-02-01T07:57:17;29.55;;;13.90;;
22094;SDS011;24083;55.670;37.568;2023-02-01T08:33:00;31.17;;;14.90;;
22094;SDS011;24083;55.670;37.568;2023-02-01T08:35:29;29.23;;;15.30;;
22094;SDS011;24083;55.670;37.568;2023-02-01T08:37:55;24.30;;;13.73;;
22094;SDS011;24083;55.670;37.568;2023-02-01T08:40:21;29.92;;;14.40;;
22094;SDS011;24083;55.670;37.568;2023-02-01T08:42:47;25.85;;;14.18;;
22094;SDS011;24083;55.670;37.568;2023-02-01T08:45:22;24.02;;;13.05;;
22094;SDS011;24083;55.670;37.568;2023-02-01T08:54:30;25.17;;;12.30;;
22094;SDS011;24083;55.670;37.568;2023-02-01T08:56:56;17.25;;;8.75;;
22094;SDS011;24083;55.670;37.568;2023-02-01T08:59:21;21.20;;;11.73;;
22094;SDS011;24083;55.670;37.568;2023-02-01T09:01:50;22.88;;;12.52;;
22094;SDS011;24083;55.670;37.568;2023-02-01T09:04:19;23.73;;;12.95;;
22094;SDS011;24083;55.670;37.568;2023-02-01T09:06:45;25.73;;;13.57;;
22094;SDS011;24083;55.670;37.568;2023-02-01T09:09:11;25.58;;;12.77;;
22094;SDS011;24083;55.670;37.568;2023-02-01T09:11:37;23.52;;;13.38;;
22094;SDS011;24083;55.670;37.568;2023-02-01T09:14:02;24.25;;;13.65;;
22094;SDS011;24083;55.670;37.568;2023-02-01T09:16:29;28.52;;;14.48;;
22094;SDS011;24083;55.670;37.568;2023-02-01T09:18:55;24.73;;;13.73;;
22094;SDS011;24083;55.670;37.568;2023-02-01T09:21:20;26.80;;;14.98;;
22094;SDS011;24083;55.670;37.568;2023-02-01T09:23:46;27.55;;;13.48;;
22094;SDS011;24083;55.670;37.568;2023-02-01T09:32:59;31.23;;;16.10;;
22094;SDS011;24083;55.670;37.568;2023-02-01T09:41:32;28.70;;;15.50;;
22094;SDS011;24083;55.670;37.568;2023-02-01T09:46:32;32.00;;;14.40;;
22094;SDS011;24083;55.670;37.568;2023-02-01T09:51:46;32.85;;;17.60;;
22094;SDS011;24083;55.670;37.568;2023-02-01T10:04:08;31.58;;;16.83;;
22094;SDS011;24083;55.670;37.568;2023-02-01T11:01:31;28.73;;;17.00;;
22094;SDS011;24083;55.670;37.568;2023-02-01T11:04:07;28.42;;;16.17;;
22094;SDS011;24083;55.670;37.568;2023-02-01T11:06:36;30.55;;;17.38;;
22094;SDS011;24083;55.670;37.568;2023-02-01T11:30:14;29.10;;;15.35;;
22094;SDS011;24083;55.670;37.568;2023-02-01T11:39:55;28.73;;;14.88;;
22094;SDS011;24083;55.670;37.568;2023-02-01T11:45:34;30.85;;;16.35;;
22094;SDS011;24083;55.670;37.568;2023-02-01T12:46:04;20.73;;;11.90;;
22094;SDS011;24083;55.670;37.568;2023-02-01T12:48:33;25.25;;;12.90;;
22094;SDS011;24083;55.670;37.568;2023-02-01T12:51:02;19.40;;;11.65;;
22094;SDS011;24083;55.670;37.568;2023-02-01T12:53:32;22.15;;;12.23;;
22094;SDS011;24083;55.670;37.568;2023-02-01T12:56:03;22.75;;;11.82;;
22094;SDS011;24083;55.670;37.568;2023-02-01T12:59:47;21.13;;;11.93;;
22094;SDS011;24083;55.670;37.568;2023-02-01T14:37:36;16.95;;;9.50;;
22094;SDS011;24083;55.670;37.568;2023-02-01T14:46:16;21.80;;;11.52;;
22094;SDS011;24083;55.670;37.568;2023-02-01T14:56:14;20.98;;;10.68;;
22094;SDS011;24083;55.670;37.568;2023-02-01T14:58:57;20.75;;;11.00;;
22094;SDS011;24083;55.670;37.568;2023-02-01T16:14:10;19.13;;;9.10;;
22094;SDS011;24083;55.670;37.568;2023-02-01T16:16:36;23.75;;;12.57;;
22094;SDS011;24083;55.670;37.568;2023-02-01T16:19:01;22.73;;;11.73;;
22094;SDS011;24083;55.670;37.568;2023-02-01T16:21:27;22.33;;;10.48;;
22094;SDS011;24083;55.670;37.568;2023-02-01T16:23:53;22.00;;;10.73;;
22094;SDS011;24083;55.670;37.568;2023-02-01T16:29:10;21.90;;;12.25;;
22094;SDS011;24083;55.670;37.568;2023-02-01T16:31:36;21.15;;;12.05;;
22094;SDS011;24083;55.670;37.568;2023-02-01T16:34:03;22.67;;;12.02;;
22094;SDS011;24083;55.670;37.568;2023-02-01T16:37:11;22.00;;;11.68;;
22094;SDS011;24083;55.670;37.568;2023-02-01T16:39:41;22.15;;;11.85;;
22094;SDS011;24083;55.670;37.568;2023-02-01T16:42:13;21.35;;;12.13;;
22094;SDS011;24083;55.670;37.568;2023-02-01T16:44:40;21.42;;;12.00;;
22094;SDS011;24083;55.670;37.568;2023-02-01T16:50:03;20.95;;;11.65;;
22094;SDS011;24083;55.670;37.568;2023-02-01T16:52:32;21.35;;;11.30;;
22094;SDS011;24083;55.670;37.568;2023-02-01T16:55:14;23.98;;;12.50;;
22094;SDS011;24083;55.670;37.568;2023-02-01T17:03:06;18.95;;;10.48;;
22094;SDS011;24083;55.670;37.568;2023-02-01T17:05:32;20.88;;;11.95;;
22094;SDS011;24083;55.670;37.568;2023-02-01T17:08:01;18.90;;;10.55;;
22094;SDS011;24083;55.670;37.568;2023-02-01T17:10:29;18.90;;;10.70;;
22094;SDS011;24083;55.670;37.568;2023-02-01T17:12:56;16.42;;;9.77;;
22094;SDS011;24083;55.670;37.568;2023-02-01T17:15:23;18.83;;;9.73;;
22094;SDS011;24083;55.670;37.568;2023-02-01T17:21:54;17.98;;;9.07;;
22094;SDS011;24083;55.670;37.568;2023-02-01T17:27:33;19.35;;;10.57;;
22094;SDS011;24083;55.670;37.568;2023-02-01T17:29:59;17.58;;;9.68;;
22094;SDS011;24083;55.670;37.568;2023-02-01T17:32:28;17.30;;;9.70;;
22094;SDS011;24083;55.670;37.568;2023-02-01T17:34:54;17.70;;;9.75;;
22094;SDS011;24083;55.670;37.568;2023-02-01T18:00:33;16.02;;;8.00;;
22094;SDS011;24083;55.670;37.568;2023-02-01T18:05:43;14.13;;;8.55;;
22094;SDS011;24083;55.670;37.568;2023-02-01T18:08:18;13.30;;;7.78;;
22094;SDS011;24083;55.670;37.568;2023-02-01T18:28:57;13.30;;;7.35;;
22094;SDS011;24083;55.670;37.568;2023-02-01T18:31:40;14.23;;;8.45;;
22094;SDS011;24083;55.670;37.568;2023-02-01T18:34:08;10.73;;;4.53;;
22094;SDS011;24083;55.670;37.568;2023-02-01T18:36:36;13.45;;;8.23;;
22094;SDS011;24083;55.670;37.568;2023-02-01T18:39:37;12.77;;;6.78;;
22094;SDS011;24083;55.670;37.568;2023-02-01T18:42:03;13.60;;;7.63;;
22094;SDS011;24083;55.670;37.568;2023-02-01T18:44:42;13.02;;;7.50;;
22094;SDS011;24083;55.670;37.568;2023-02-01T18:47:29;12.73;;;6.55;;
22094;SDS011;24083;55.670;37.568;2023-02-01T18:49:55;11.85;;;6.57;;
22094;SDS011;24083;55.670;37.568;2023-02-01T18:52:21;12.30;;;7.60;;
22094;SDS011;24083;55.670;37.568;2023-02-01T18:54:47;14.13;;;7.90;;
22094;SDS011;24083;55.670;37.568;2023-02-01T18:57:20;12.75;;;7.85;;
22094;SDS011;24083;55.670;37.568;2023-02-01T18:59:48;12.00;;;7.80;;
22094;SDS011;24083;55.670;37.568;2023-02-01T19:02:18;15.40;;;7.97;;
22094;SDS011;24083;55.670;37.568;2023-02-01T19:04:45;13.70;;;8.13;;
22094;SDS011;24083;55.670;37.568;2023-02-01T19:07:18;13.52;;;8.27;;
22094;SDS011;24083;55.670;37.568;2023-02-01T19:09:44;11.50;;;6.72;;
22094;SDS011;24083;55.670;37.568;2023-02-01T19:12:20;13.23;;;7.53;;
22094;SDS011;24083;55.670;37.568;2023-02-01T19:14:51;14.10;;;7.65;;
22094;SDS011;24083;55.670;37.568;2023-02-01T19:17:39;12.88;;;7.25;;
22094;SDS011;24083;55.670;37.568;2023-02-01T19:20:06;15.68;;;8.98;;
22094;SDS011;24083;55.670;37.568;2023-02-01T19:22:32;12.70;;;7.18;;
22094;SDS011;24083;55.670;37.568;2023-02-01T19:24:58;16.38;;;8.75;;
22094;SDS011;24083;55.670;37.568;2023-02-01T19:27:28;14.30;;;8.98;;
22094;SDS011;24083;55.670;37.568;2023-02-01T19:29:55;19.17;;;9.07;;
22094;SDS011;24083;55.670;37.568;2023-02-01T19:32:22;15.27;;;9.60;;
22094;SDS011;24083;55.670;37.568;2023-02-01T19:37:27;17.10;;;9.93;;
22094;SDS011;24083;55.670;37.568;2023-02-01T19:40:19;19.43;;;9.83;;
22094;SDS011;24083;55.670;37.568;2023-02-01T19:42:54;15.52;;;7.82;;
22094;SDS011;24083;55.670;37.568;2023-02-01T19:48:37;17.95;;;10.32;;
22094;SDS011;24083;55.670;37.568;2023-02-01T19:51:03;17.90;;;10.68;;
22094;SDS011;24083;55.670;37.568;2023-02-01T19:53:29;19.58;;;11.95;;
22094;SDS011;24083;55.670;37.568;2023-02-01T19:55:58;21.63;;;11.32;;
22094;SDS011;24083;55.670;37.568;2023-02-01T19:58:25;21.65;;;10.30;;
22094;SDS011;24083;55.670;37.568;2023-02-01T20:00:55;20.92;;;11.60;;
22094;SDS011;24083;55.670;37.568;2023-02-01T20:03:22;20.73;;;11.88;;
22094;SDS011;24083;55.670;37.568;2023-02-01T20:05:55;20.83;;;12.48;;
22094;SDS011;24083;55.670;37.568;2023-02-01T20:08:22;21.05;;;11.95;;
22094;SDS011;24083;55.670;37.568;2023-02-01T20:10:48;22.67;;;12.40;;
22094;SDS011;24083;55.670;37.568;2023-02-01T20:17:13;23.70;;;12.55;;
22094;SDS011;24083;55.670;37.568;2023-02-01T20:38:59;26.02;;;13.20;;
22094;SDS011;24083;55.670;37.568;2023-02-01T20:41:25;25.25;;;14.13;;
22094;SDS011;24083;55.670;37.568;2023-02-01T20:55:06;26.35;;;13.90;;
22094;SDS011;24083;55.670;37.568;2023-02-01T20:58:26;26.35;;;13.95;;
22094;SDS011;24083;55.670;37.568;2023-02-01T21:00:56;25.17;;;13.90;;
22094;SDS011;24083;55.670;37.568;2023-02-01T21:03:23;24.08;;;14.32;;
22094;SDS011;24083;55.670;37.568;2023-02-01T21:05:53;27.05;;;14.27;;
22094;SDS011;24083;55.670;37.568;2023-02-01T21:08:19;24.88;;;13.73;;
22094;SDS011;24083;55.670;37.568;2023-02-01T21:11:01;27.33;;;14.40;;
22094;SDS011;24083;55.670;37.568;2023-02-01T21:13:29;28.38;;;15.93;;
22094;SDS011;24083;55.670;37.568;2023-02-01T21:16:24;26.65;;;15.40;;
22094;SDS011;24083;55.670;37.568;2023-02-01T21:18:51;31.13;;;15.75;;
22094;SDS011;24083;55.670;37.568;2023-02-01T21:21:21;30.92;;;15.77;;
22094;SDS011;24083;55.670;37.568;2023-02-01T21:23:47;24.98;;;14.23;;
22094;SDS011;24083;55.670;37.568;2023-02-01T21:26:18;25.98;;;14.32;;
22094;SDS011;24083;55.670;37.568;2023-02-01T21:33:10;26.73;;;14.85;;
22094;SDS011;24083;55.670;37.568;2023-02-01T21:35:38;28.15;;;14.27;;
22094;SDS011;24083;55.670;37.568;2023-02-01T21:38:29;22.75;;;12.05;;
22094;SDS011;24083;55.670;37.568;2023-02-01T21:40:55;26.30;;;14.27;;
22094;SDS011;24083;55.670;37.568;2023-02-01T21:43:50;20.40;;;10.10;;
22094;SDS011;24083;55.670;37.568;2023-02-01T21:46:15;26.02;;;14.38;;
22094;SDS011;24083;55.670;37.568;2023-02-01T21:48:42;28.55;;;15.20;;
22094;SDS011;24083;55.670;37.568;2023-02-01T21:51:15;26.90;;;14.80;;
22094;SDS011;24083;55.670;37.568;2023-02-01T21:53:41;28.67;;;15.88;;
22094;SDS011;24083;55.670;37.568;2023-02-01T21:56:11;28.15;;;15.82;;
22094;SDS011;24083;55.670;37.568;2023-02-01T21:59:09;27.45;;;14.95;;
22094;SDS011;24083;55.670;37.568;2023-02-01T22:01:35;25.25;;;14.85;;
22094;SDS011;24083;55.670;37.568;2023-02-01T22:04:02;27.67;;;15.38;;
22094;SDS011;24083;55.670;37.568;2023-02-01T22:06:30;27.55;;;15.15;;
22094;SDS011;24083;55.670;37.568;2023-02-01T22:08:58;27.25;;;14.82;;
22094;SDS011;24083;55.670;37.568;2023-02-01T22:11:31;28.75;;;14.48;;
22094;SDS011;24083;55.670;37.568;2023-02-01T22:14:19;26.17;;;13.02;;
22094;SDS011;24083;55.670;37.568;2023-02-01T22:16:44;26.10;;;14.68;;
22094;SDS011;24083;55.670;37.568;2023-02-01T22:22:02;27.65;;;14.45;;
22094;SDS011;24083;55.670;37.568;2023-02-01T22:24:30;28.23;;;12.95;;
22094;SDS011;24083;55.670;37.568;2023-02-01T22:27:08;25.73;;;13.65;;
22094;SDS011;24083;55.670;37.568;2023-02-01T22:33:20;24.70;;;12.73;;
22094;SDS011;24083;55.670;37.568;2023-02-01T22:38:41;26.42;;;14.48;;
22094;SDS011;24083;55.670;37.568;2023-02-01T22:43:55;29.60;;;14.68;;
22094;SDS011;24083;55.670;37.568;2023-02-01T22:46:27;24.27;;;13.50;;
22094;SDS011;24083;55.670;37.568;2023-02-01T22:48:55;23.65;;;11.82;;
22094;SDS011;24083;55.670;37.568;2023-02-01T22:51:23;25.85;;;13.82;;
22094;SDS011;24083;55.670;37.568;2023-02-01T22:53:49;20.17;;;11.07;;
22094;SDS011;24083;55.670;37.568;2023-02-01T22:56:32;27.35;;;14.90;;
22094;SDS011;24083;55.670;37.568;2023-02-01T22:58:59;23.42;;;12.57;;
22094;SDS011;24083;55.670;37.568;2023-02-01T23:01:25;27.75;;;12.13;;
22094;SDS011;24083;55.670;37.568;2023-02-01T23:03:56;30.48;;;15.05;;
22094;SDS011;24083;55.670;37.568;2023-02-01T23:06:22;30.75;;;17.50;;
22094;SDS011;24083;55.670;37.568;2023-02-01T23:08:48;31.23;;;15.38;;
22094;SDS011;24083;55.670;37.568;2023-02-01T23:11:20;33.47;;;15.90;;
22094;SDS011;24083;55.670;37.568;2023-02-01T23:13:46;28.35;;;15.18;;
22094;SDS011;24083;55.670;37.568;2023-02-01T23:16:12;26.75;;;12.45;;
22094;SDS011;24083;55.670;37.568;2023-02-01T23:21:32;29.33;;;16.02;;
22094;SDS011;24083;55.670;37.568;2023-02-01T23:23:59;32.28;;;17.75;;
22094;SDS011;24083;55.670;37.568;2023-02-01T23:26:26;32.37;;;17.33;;
22094;SDS011;24083;55.670;37.568;2023-02-01T23:28:52;24.25;;;13.13;;
22094;SDS011;24083;55.670;37.568;2023-02-01T23:31:23;32.17;;;16.45;;
22094;SDS011;24083;55.670;37.568;2023-02-01T23:33:49;32.42;;;16.15;;
22094;SDS011;24083;55.670;37.568;2023-02-01T23:36:19;31.50;;;15.85;;
22094;SDS011;24083;55.670;37.568;2023-02-01T23:38:45;27.42;;;14.55;;
22094;SDS011;24083;55.670;37.568;2023-02-01T23:41:12;28.35;;;15.55;;
22094;SDS011;24083;55.670;37.568;2023-02-01T23:43:38;26.07;;;14.60;;
22094;SDS011;24083;55.670;37.568;2023-02-01T23:46:27;30.83;;;14.88;;
22094;SDS011;24083;55.670;37.568;2023-02-01T23:48:53;33.63;;;17.33;;
22094;SDS011;24083;55.670;37.568;2023-02-01T23:51:26;28.05;;;14.70;;
22094;SDS011;24083;55.670;37.568;2023-02-01T23:53:52;29.00;;;15.65;;
22094;SDS011;24083;55.670;37.568;2023-02-01T23:59:52;31.98;;;16.90;;
